Briefing drone pour Guerigny

Rechercher une autre localisation

Conditions de vol :


Nous sommes le : Mercredi 29 novembre 2023
Il est 18:22 UTC (19:22 LT)

Lever de soleil : 06:43 UTC (07:43 LT)
Coucher de soleil : 16:27 UTC (17:27 LT)

Météo

L'essentiel des conditions de vol

VIGILANCE MÉTÉO FRANCE - Nièvre (58)
Vigilance Jaune : Orages
METAR de LFQG
LFQG 291800Z AUTO 10004KT CAVOK 03/01 Q1003

Date d'émission: 29/11/2023
Heure d'émission: 18:00 UTC
Vent: 100° pour 4 KT (7 km/h)
Visibilité horizontale: > 10 km
Plafond : Plafond et visibilité OK (CAVOK)
Température: 3 °C
Point de rosée: 1 °C
Humidité: 87%
Pression (QNH): 1003 hPa
Prévision 24h pour Nevers (7 km)
Vent : 141° pour 1 KT (4 km/h)
Temperature Maxi: 5 °C
Temperature Min: 5 °C
Humidité : 96%
Condition : Légère pluie


WEBCAM POUR GUERIGNY

Réglementation

Voler en sécurité

CARTES AERONAUTIQUE 1/500.000
CARTE AZBA (Reseau basse altitude)
CARTES VAC (LFQG)
SUP AIP




Chargement des AIP...
NOTAM (GUERIGNY + Terrain à proximité / FIR )




Chargement des NOTAMS...
CONTACT PREFECTURE 58
Nièvre (58) : [email protected]


Avertissement : Les données mises à disposition sont indicatives. Oxygène Drone ne pourra être tenu responsable de dégâts causés aux biens et aux personnes.